Terminal Aerodrome Forecast
Issued by NWS

Home | Current Version | Previous Version | Text Only | Print | Product List | Glossary On
Versions: 1 2 3 4 5 6 7 8 9 10 11 12 13 14 15 16 17 18 19 20 21 22 23 24
000
FTUS43 KMKX 022323
TAFENW
TAF
KENW 022323Z 0300/0324 30007KT P6SM OVC030
     FM031400 27006KT P6SM OVC030
     FM031800 28006KT P6SM BKN040
     FM032100 28005KT P6SM OVC030
     FM032300 28004KT P6SM BKN040=

USA.gov is the U.S. government's official web portal to all federal, state and local government web resources and services.